KEND/END METAR and TAF weather

Enter ICAO airport designator
Station Type Date Time Source
KEND METAR 2021/08/05 02:56 UTC NOAA

KEND 050256Z AUTO 10005KT 10SM SCT100 24/17 A3008 RMK AO2 DZB09E20DZB37E38 SLP176 P0000 60000 T02410173 52010


Station Type Date Time Source
KEND Decoded METAR 2021/08/05 02:56 UTC NOAA

Vance Air Force Base / Enid, OK, United States (KEND) 36-20N 097-55W
Aug 04, 2021 - 10:56 PM EDT / 2021.08.05 0256 UTC
Wind: from the E (100 degrees) at 6 MPH (5 KT):0
Visibility: 10 mile(s):0
Sky conditions: partly cloudy
Precipitation last hour: A trace
Temperature: 75.4 F (24.1 C)
Dew Point: 63.1 F (17.3 C)
Relative Humidity: 65%
Pressure (altimeter): 30.08 in. Hg (1018 hPa)
Pressure tendency: 0.03 inches (1.0 hPa) higher than three hours ago
ob: KEND 050256Z AUTO 10005KT 10SM SCT100 24/17 A3008 RMK AO2 DZB09E20DZB37E38 SLP176 P0000 60000 T02410173 52010
cycle: 3

Station Type Date Time Source
KEND TAF 2021/08/05 02:51 UTC NOAA

TAF KEND 050200Z 0502/0608 VRB06KT 9999 FEW070 BKN150 QNH3007INS TX31/0522Z TN21/0511Z

Example: see airport list